createdAt,value
2019-01-21T00:00:42.773Z,76.21
2019-01-21T00:03:14.687Z,74.64
2019-01-21T00:05:43.212Z,75.87
2019-01-21T00:08:12.441Z,75.04
2019-01-21T00:10:41.698Z,75.17
2019-01-21T00:13:11.028Z,74.17
2019-01-21T00:15:40.377Z,73.72
2019-01-21T00:18:09.641Z,73.32
2019-01-21T00:20:38.917Z,73.19
2019-01-21T00:23:10.100Z,73.48
2019-01-21T00:25:39.372Z,74.36
2019-01-21T00:28:08.705Z,74.56
2019-01-21T00:30:37.973Z,74.22
2019-01-21T00:33:09.139Z,75.71
2019-01-21T00:35:38.486Z,76.22
2019-01-21T00:38:07.730Z,76.04
2019-01-21T00:40:36.995Z,75.37
2019-01-21T00:43:06.248Z,76.72
2019-01-21T00:45:35.529Z,76.43
2019-01-21T00:48:05.017Z,74.43
2019-01-21T00:50:34.526Z,74.98
2019-01-21T00:53:03.777Z,76.31
2019-01-21T00:55:33.015Z,75.41
2019-01-21T00:58:02.280Z,75.74
2019-01-21T01:00:31.536Z,76.66
2019-01-21T01:03:00.861Z,75.67
2019-01-21T01:05:30.275Z,75.33
2019-01-21T01:07:59.531Z,76.10
2019-01-21T01:10:28.780Z,76.19
2019-01-21T01:12:58.065Z,76.12
2019-01-21T01:15:27.301Z,76.80
2019-01-21T01:17:57.561Z,76.01
2019-01-21T01:20:26.806Z,76.33
2019-01-21T01:22:56.086Z,75.08
2019-01-21T01:25:25.321Z,74.46
2019-01-21T01:27:54.666Z,75.29
2019-01-21T01:30:23.919Z,74.92
2019-01-21T01:32:53.201Z,75.60
2019-01-21T01:35:22.544Z,74.94
2019-01-21T01:37:51.804Z,75.30
2019-01-21T01:40:21.252Z,75.59
2019-01-21T01:42:50.567Z,75.78
2019-01-21T01:45:21.668Z,76.55
2019-01-21T01:47:54.521Z,76.79
2019-01-21T01:50:23.851Z,76.64
2019-01-21T01:52:53.108Z,75.59
2019-01-21T01:55:24.126Z,76.15
2019-01-21T01:57:55.417Z,76.00
2019-01-21T02:00:24.759Z,76.07
2019-01-21T02:02:54.079Z,76.30
2019-01-21T02:05:24.377Z,75.77
2019-01-21T02:07:53.798Z,76.08
2019-01-21T02:10:24.088Z,76.66
2019-01-21T02:12:53.315Z,74.94
2019-01-21T02:15:22.647Z,76.41
2019-01-21T02:17:52.430Z,77.52
2019-01-21T02:20:21.811Z,78.50
2019-01-21T02:22:53.363Z,78.72
2019-01-21T02:25:25.632Z,76.53
2019-01-21T02:28:19.279Z,75.54
2019-01-21T02:31:21.193Z,76.30
2019-01-21T02:34:11.521Z,78.34
2019-01-21T02:37:05.997Z,77.06
2019-01-21T02:39:57.396Z,78.52
2019-01-21T02:42:41.239Z,77.09
2019-01-21T02:45:30.093Z,77.42
2019-01-21T02:48:09.555Z,77.49
2019-01-21T02:50:54.806Z,78.74
2019-01-21T02:53:27.225Z,77.84
2019-01-21T02:56:11.313Z,77.96
2019-01-21T02:59:00.756Z,77.90
2019-01-21T03:01:38.915Z,77.16
2019-01-21T03:04:36.768Z,77.81
2019-01-21T03:07:31.848Z,77.63
2019-01-21T03:10:25.037Z,78.51
2019-01-21T03:13:21.277Z,77.23
2019-01-21T03:16:13.155Z,76.64
2019-01-21T03:19:09.303Z,78.41
2019-01-21T03:21:47.413Z,75.99
2019-01-21T03:24:22.389Z,76.38
2019-01-21T03:26:54.827Z,77.48
2019-01-21T03:29:46.172Z,78.46
2019-01-21T03:32:35.181Z,78.62
2019-01-21T03:35:08.572Z,78.94
2019-01-21T03:37:58.033Z,77.38
2019-01-21T03:40:50.811Z,77.30
2019-01-21T03:43:28.476Z,77.18
2019-01-21T03:46:21.270Z,77.02
2019-01-21T03:48:51.892Z,77.00
2019-01-21T03:51:34.773Z,77.40
2019-01-21T03:54:07.193Z,77.96
2019-01-21T03:56:39.022Z,77.36
2019-01-21T03:59:15.160Z,77.23
2019-01-21T04:02:06.139Z,77.02
2019-01-21T04:05:13.499Z,76.75
2019-01-21T04:08:16.213Z,76.59
2019-01-21T04:10:54.418Z,76.94
2019-01-21T04:13:49.103Z,77.28
2019-01-21T04:16:51.658Z,78.05
2019-01-21T04:19:24.073Z,77.77
2019-01-21T04:22:06.693Z,78.28
2019-01-21T04:24:39.152Z,77.07
2019-01-21T04:27:17.360Z,77.64
2019-01-21T04:30:14.869Z,77.64
2019-01-21T04:33:07.866Z,77.60
2019-01-21T04:35:49.206Z,76.52
2019-01-21T04:38:33.303Z,77.27
2019-01-21T04:41:08.208Z,77.26
2019-01-21T04:43:46.632Z,77.88
2019-01-21T04:46:35.107Z,77.42
2019-01-21T04:49:11.361Z,77.25
2019-01-21T04:52:13.551Z,78.06
2019-01-21T04:55:06.597Z,77.36
2019-01-21T04:57:42.841Z,76.88
2019-01-21T05:00:26.868Z,76.76
2019-01-21T05:03:14.070Z,77.86
2019-01-21T05:05:52.385Z,76.25
2019-01-21T05:08:57.956Z,76.29
2019-01-21T05:11:30.389Z,78.21
2019-01-21T05:14:26.964Z,78.89
2019-01-21T05:17:17.321Z,78.17
2019-01-21T05:20:05.912Z,77.64
2019-01-21T05:22:41.092Z,77.66
2019-01-21T05:25:23.154Z,78.28
2019-01-21T05:28:16.307Z,78.50
2019-01-21T05:31:07.427Z,78.67
2019-01-21T05:33:55.564Z,78.20
2019-01-21T05:36:27.989Z,77.49
2019-01-21T05:39:09.248Z,78.36
2019-01-21T05:41:42.629Z,79.29
2019-01-21T05:44:21.104Z,79.54
2019-01-21T05:47:03.648Z,78.98
2019-01-21T05:49:41.998Z,79.13
2019-01-21T05:52:30.675Z,79.03
2019-01-21T05:55:15.252Z,79.24
2019-01-21T05:58:02.256Z,79.91
2019-01-21T06:01:02.066Z,79.53
2019-01-21T06:03:40.017Z,81.34
2019-01-21T06:06:28.700Z,79.78
2019-01-21T06:09:07.735Z,77.60
2019-01-21T06:12:00.887Z,80.16
2019-01-21T06:14:35.735Z,79.61
2019-01-21T06:17:08.178Z,77.50
2019-01-21T06:19:46.243Z,77.17
2019-01-21T06:22:33.305Z,77.49
2019-01-21T06:25:11.577Z,78.34
2019-01-21T06:27:50.478Z,77.97
2019-01-21T06:30:41.935Z,77.36
2019-01-21T06:33:38.706Z,78.23
2019-01-21T06:36:18.258Z,77.29
2019-01-21T06:39:23.881Z,76.91
2019-01-21T06:42:11.245Z,78.47
2019-01-21T06:45:05.867Z,78.25
2019-01-21T06:47:47.968Z,78.12
2019-01-21T06:50:41.434Z,80.25
2019-01-21T06:53:32.872Z,79.93
2019-01-21T06:56:19.888Z,80.66
2019-01-21T06:59:07.938Z,79.87
2019-01-21T07:01:41.403Z,79.27
2019-01-21T07:04:34.399Z,80.81
2019-01-21T07:07:22.810Z,80.64
2019-01-21T07:10:01.119Z,80.83
2019-01-21T07:12:46.102Z,78.93
2019-01-21T07:15:41.132Z,79.18
2019-01-21T07:18:28.093Z,78.90
2019-01-21T07:21:00.514Z,78.37
2019-01-21T07:23:39.024Z,78.60
2019-01-21T07:26:23.095Z,79.55
2019-01-21T07:28:58.271Z,78.49
2019-01-21T07:31:40.446Z,79.63
2019-01-21T07:34:35.101Z,79.17
2019-01-21T07:37:16.238Z,80.37
2019-01-21T07:40:01.644Z,79.71
2019-01-21T07:42:38.591Z,78.44
2019-01-21T07:45:33.979Z,77.14
2019-01-21T07:48:21.352Z,77.73
2019-01-21T07:51:16.941Z,78.37
2019-01-21T07:53:54.946Z,77.84
2019-01-21T07:56:41.220Z,79.36
2019-01-21T07:59:28.484Z,78.71
2019-01-21T08:02:17.052Z,78.48
2019-01-21T08:04:50.451Z,78.41
2019-01-21T08:07:25.575Z,78.53
2019-01-21T08:10:14.105Z,78.17
2019-01-21T08:12:59.285Z,77.23
2019-01-21T08:15:40.478Z,77.27
2019-01-21T08:18:12.935Z,77.03
2019-01-21T08:20:45.350Z,72.66
2019-01-21T08:23:38.178Z,71.95
2019-01-21T08:26:22.262Z,71.00
2019-01-21T08:29:13.676Z,69.22
2019-01-21T08:31:49.898Z,67.76
2019-01-21T08:34:37.985Z,67.97
2019-01-21T08:37:25.130Z,68.15
2019-01-21T08:40:08.458Z,64.06
2019-01-21T08:42:46.739Z,65.24
2019-01-21T08:45:21.974Z,68.94
2019-01-21T08:48:06.082Z,70.41
2019-01-21T08:50:41.169Z,70.16
2019-01-21T08:53:13.590Z,68.47
2019-01-21T08:55:49.057Z,68.56
2019-01-21T08:58:39.301Z,70.30
2019-01-21T09:01:23.327Z,70.17
2019-01-21T09:04:08.372Z,71.14
2019-01-21T09:06:49.313Z,70.79
2019-01-21T09:09:21.736Z,68.17
2019-01-21T09:12:09.766Z,71.66
2019-01-21T09:14:42.186Z,69.61
2019-01-21T09:17:26.290Z,70.57
2019-01-21T09:20:10.471Z,71.65
2019-01-21T09:22:50.460Z,71.05
2019-01-21T09:25:29.707Z,71.44
2019-01-21T09:28:15.027Z,69.89
2019-01-21T09:31:04.801Z,70.29
2019-01-21T09:33:42.873Z,69.13
2019-01-21T09:36:22.926Z,71.17
2019-01-21T09:38:58.178Z,69.10
2019-01-21T09:41:33.128Z,67.38
2019-01-21T09:44:08.064Z,68.94
2019-01-21T09:46:46.693Z,68.80
2019-01-21T09:49:14.905Z,67.24
2019-01-21T09:51:46.182Z,68.38
2019-01-21T09:54:15.723Z,67.33
2019-01-21T09:56:48.196Z,67.09
2019-01-21T09:59:17.454Z,65.11
2019-01-21T10:01:47.049Z,63.89
2019-01-21T10:04:19.501Z,64.93
2019-01-21T10:06:52.916Z,64.92
2019-01-21T10:09:31.143Z,66.35
2019-01-21T10:12:22.779Z,66.19
2019-01-21T10:15:14.140Z,67.15
2019-01-21T10:17:59.805Z,66.76
2019-01-21T10:20:57.296Z,66.64
2019-01-21T10:23:32.402Z,69.91
2019-01-21T10:26:10.500Z,69.71
2019-01-21T10:28:45.406Z,67.23
2019-01-21T10:31:42.447Z,67.30
2019-01-21T10:34:31.079Z,67.03
2019-01-21T10:37:30.425Z,68.81
2019-01-21T10:40:20.776Z,69.28
2019-01-21T10:43:01.486Z,71.31
2019-01-21T10:45:42.160Z,71.94
2019-01-21T10:48:20.166Z,69.60
2019-01-21T10:50:59.291Z,72.42
2019-01-21T10:53:36.453Z,73.64
2019-01-21T10:56:19.396Z,69.03
2019-01-21T10:58:51.852Z,70.00
2019-01-21T11:01:36.189Z,70.42
2019-01-21T11:04:20.113Z,67.99
2019-01-21T11:07:14.370Z,71.22
2019-01-21T11:10:01.682Z,72.78
2019-01-21T11:12:46.548Z,72.21
2019-01-21T11:15:26.512Z,69.73
2019-01-21T11:18:04.729Z,71.96
2019-01-21T11:20:57.866Z,70.83
2019-01-21T11:23:34.024Z,70.70
2019-01-21T11:26:40.096Z,69.59
2019-01-21T11:29:41.937Z,69.51
2019-01-21T11:32:26.974Z,68.92
2019-01-21T11:35:09.867Z,67.95
2019-01-21T11:37:52.138Z,69.23
2019-01-21T11:40:31.337Z,66.92
2019-01-21T11:43:14.435Z,65.53
2019-01-21T11:45:56.362Z,64.59
2019-01-21T11:48:46.719Z,64.96
2019-01-21T11:51:42.755Z,65.75
2019-01-21T11:54:21.077Z,65.67
2019-01-21T11:57:04.425Z,65.49
2019-01-21T11:59:45.515Z,64.03
2019-01-21T12:02:26.785Z,65.82
2019-01-21T12:05:01.127Z,63.17
2019-01-21T12:07:53.842Z,62.88
2019-01-21T12:10:32.617Z,65.73
2019-01-21T12:13:21.273Z,66.67
2019-01-21T12:16:24.985Z,64.57
2019-01-21T12:19:01.109Z,64.57
2019-01-21T12:21:39.118Z,64.13
2019-01-21T12:24:12.683Z,65.59
2019-01-21T12:27:03.723Z,63.85
2019-01-21T12:29:44.992Z,65.55
2019-01-21T12:32:40.076Z,65.34
2019-01-21T12:35:24.404Z,65.56
2019-01-21T12:37:56.829Z,66.07
2019-01-21T12:40:29.304Z,65.74
2019-01-21T12:43:20.817Z,66.87
2019-01-21T12:46:01.855Z,66.78
2019-01-21T12:48:34.335Z,66.88
2019-01-21T12:51:18.890Z,66.18
2019-01-21T12:54:01.226Z,66.28
2019-01-21T12:56:48.452Z,66.20
2019-01-21T12:59:53.453Z,63.10
2019-01-21T13:02:32.453Z,62.91
2019-01-21T13:05:07.539Z,64.09
2019-01-21T13:07:45.853Z,63.03
2019-01-21T13:10:27.201Z,60.97
2019-01-21T13:13:21.706Z,60.74
2019-01-21T13:16:00.632Z,61.66
2019-01-21T13:18:45.902Z,63.60
2019-01-21T13:21:40.533Z,63.17
2019-01-21T13:24:15.535Z,61.24
2019-01-21T13:26:52.049Z,62.13
2019-01-21T13:29:24.485Z,63.60
2019-01-21T13:32:12.232Z,65.22
2019-01-21T13:34:44.707Z,63.95
2019-01-21T13:37:33.428Z,63.60
2019-01-21T13:40:28.520Z,62.77
2019-01-21T13:43:19.212Z,64.58
2019-01-21T13:46:14.066Z,62.82
2019-01-21T13:48:49.528Z,62.33
2019-01-21T13:51:30.590Z,64.93
2019-01-21T13:54:31.834Z,62.73
2019-01-21T13:57:19.117Z,62.63
2019-01-21T14:00:07.273Z,63.85
2019-01-21T14:02:39.681Z,63.11
2019-01-21T14:05:19.142Z,65.17
2019-01-21T14:08:04.247Z,64.79
2019-01-21T14:10:48.450Z,64.90
2019-01-21T14:13:27.761Z,65.20
2019-01-21T14:16:05.735Z,64.99
2019-01-21T14:18:43.056Z,61.60
2019-01-21T14:21:18.138Z,63.36
2019-01-21T14:24:02.568Z,62.85
2019-01-21T14:26:38.947Z,62.66
2019-01-21T14:29:11.360Z,63.44
2019-01-21T14:32:08.395Z,62.70
2019-01-21T14:34:40.828Z,62.85
2019-01-21T14:37:37.026Z,63.22
2019-01-21T14:40:26.405Z,63.18
2019-01-21T14:43:14.780Z,62.93
2019-01-21T14:46:10.286Z,62.29
2019-01-21T14:49:04.458Z,62.60
2019-01-21T14:51:35.738Z,62.50
2019-01-21T14:54:36.529Z,63.06
2019-01-21T14:57:29.957Z,62.57
2019-01-21T15:00:15.351Z,62.77
2019-01-21T15:02:53.597Z,62.46
2019-01-21T15:05:35.189Z,62.75
2019-01-21T15:08:07.775Z,63.48
2019-01-21T15:10:52.083Z,63.58
2019-01-21T15:13:44.260Z,63.48
2019-01-21T15:16:16.673Z,64.04
2019-01-21T15:18:57.628Z,64.78
2019-01-21T15:21:44.230Z,64.82
2019-01-21T15:24:29.649Z,66.11
2019-01-21T15:27:22.260Z,65.10
2019-01-21T15:29:55.687Z,64.47
2019-01-21T15:32:39.952Z,64.83
2019-01-21T15:35:20.652Z,65.35
2019-01-21T15:38:06.003Z,64.08
2019-01-21T15:41:03.236Z,64.61
2019-01-21T15:43:35.639Z,66.00
2019-01-21T15:46:17.158Z,65.99
2019-01-21T15:48:53.581Z,66.60
2019-01-21T15:51:29.835Z,66.69
2019-01-21T15:54:17.947Z,68.15
2019-01-21T15:56:57.132Z,66.67
2019-01-21T15:59:35.095Z,66.46
2019-01-21T16:02:10.026Z,66.74
2019-01-21T16:04:46.206Z,67.45
2019-01-21T16:07:21.329Z,68.30
2019-01-21T16:10:00.743Z,68.61
2019-01-21T16:12:35.909Z,67.04
2019-01-21T16:15:33.704Z,66.72
2019-01-21T16:18:22.474Z,68.50
2019-01-21T16:21:13.721Z,68.15
2019-01-21T16:24:01.756Z,68.83
2019-01-21T16:26:34.190Z,67.27
2019-01-21T16:29:09.398Z,67.61
2019-01-21T16:31:39.396Z,67.38
2019-01-21T16:34:32.189Z,67.66
2019-01-21T16:37:11.750Z,69.10
2019-01-21T16:40:10.870Z,69.67
2019-01-21T16:42:41.053Z,69.97
2019-01-21T16:45:10.291Z,68.54
2019-01-21T16:47:39.542Z,68.55
2019-01-21T16:50:08.866Z,69.09
2019-01-21T16:52:38.139Z,70.70
2019-01-21T16:55:08.531Z,70.18
2019-01-21T16:57:37.789Z,71.12
2019-01-21T17:00:10.409Z,70.51
2019-01-21T17:02:39.680Z,69.81
2019-01-21T17:05:11.472Z,70.76
2019-01-21T17:07:41.815Z,70.82
2019-01-21T17:10:14.789Z,71.32
2019-01-21T17:12:44.053Z,71.25
2019-01-21T17:15:13.970Z,71.40
2019-01-21T17:17:44.360Z,71.92
2019-01-21T17:20:17.107Z,72.09
2019-01-21T17:22:47.409Z,72.18
2019-01-21T17:25:16.810Z,72.94
2019-01-21T17:27:46.064Z,71.51
2019-01-21T17:30:17.153Z,72.64
2019-01-21T17:32:46.396Z,72.30
2019-01-21T17:35:15.745Z,72.96
2019-01-21T17:37:44.996Z,72.69
2019-01-21T17:40:17.830Z,74.08
2019-01-21T17:42:47.146Z,73.37
2019-01-21T17:45:18.835Z,73.80
2019-01-21T17:47:48.150Z,72.87
2019-01-21T17:50:18.723Z,73.02
2019-01-21T17:52:47.976Z,74.05
2019-01-21T17:55:17.287Z,74.33
2019-01-21T17:57:46.658Z,74.03
2019-01-21T18:00:21.393Z,73.80
2019-01-21T18:02:50.653Z,72.72
2019-01-21T18:05:19.908Z,73.16
2019-01-21T18:07:49.150Z,72.69
2019-01-21T18:10:19.079Z,72.56
2019-01-21T18:12:48.403Z,72.12
2019-01-21T18:15:17.801Z,72.57
2019-01-21T18:17:48.254Z,71.96
2019-01-21T18:20:19.891Z,74.01
2019-01-21T18:22:50.152Z,73.50
2019-01-21T18:25:19.398Z,72.93
2019-01-21T18:27:49.704Z,73.39
2019-01-21T18:30:23.020Z,72.40
2019-01-21T18:32:52.420Z,72.37
2019-01-21T18:35:21.676Z,73.59
2019-01-21T18:37:52.931Z,74.35
2019-01-21T18:40:22.323Z,72.67
2019-01-21T18:42:51.643Z,72.58
2019-01-21T18:45:25.084Z,72.87
2019-01-21T18:47:54.427Z,72.87
2019-01-21T18:50:23.680Z,72.04
2019-01-21T18:52:53.379Z,72.27
2019-01-21T18:55:22.702Z,73.54
2019-01-21T18:57:55.865Z,73.68
2019-01-21T19:00:24.166Z,73.19
2019-01-21T19:02:54.360Z,73.45
2019-01-21T19:05:24.671Z,74.09
2019-01-21T19:07:58.948Z,75.70
2019-01-21T19:10:28.208Z,74.83
2019-01-21T19:12:57.465Z,75.90
2019-01-21T19:15:29.144Z,75.73
2019-01-21T19:17:58.427Z,76.26
2019-01-21T19:20:27.926Z,75.53
2019-01-21T19:22:57.201Z,75.01
2019-01-21T19:25:26.454Z,75.37
2019-01-21T19:27:55.699Z,75.66
2019-01-21T19:30:27.026Z,74.90
2019-01-21T19:32:56.438Z,74.76
2019-01-21T19:35:28.434Z,75.42
2019-01-21T19:37:57.672Z,74.53
2019-01-21T19:40:27.921Z,74.81
2019-01-21T19:42:58.166Z,73.86
2019-01-21T19:45:27.493Z,75.30
2019-01-21T19:47:56.717Z,75.05
2019-01-21T19:50:27.949Z,75.11
2019-01-21T19:52:57.262Z,75.95
2019-01-21T19:55:30.463Z,75.59
2019-01-21T19:57:59.692Z,75.34
2019-01-21T20:00:30.032Z,75.59
2019-01-21T20:02:59.273Z,75.70
2019-01-21T20:05:28.539Z,75.31
2019-01-21T20:07:57.803Z,75.38
2019-01-21T20:10:27.055Z,75.31
2019-01-21T20:12:56.318Z,75.49
2019-01-21T20:15:25.563Z,75.52
2019-01-21T20:17:54.858Z,74.82
2019-01-21T20:20:30.987Z,74.65
2019-01-21T20:23:00.395Z,74.71
2019-01-21T20:25:29.694Z,75.63
2019-01-21T20:27:58.950Z,75.29
2019-01-21T20:30:28.199Z,75.66
2019-01-21T20:32:58.572Z,75.46
2019-01-21T20:35:27.846Z,75.06
2019-01-21T20:37:57.116Z,75.52
2019-01-21T20:40:28.493Z,75.35
2019-01-21T20:42:58.768Z,75.42
2019-01-21T20:45:28.044Z,75.42
2019-01-21T20:47:57.402Z,75.14
2019-01-21T20:50:29.192Z,76.06
2019-01-21T20:52:58.516Z,74.77
2019-01-21T20:55:27.948Z,75.30
2019-01-21T20:57:57.228Z,76.44
2019-01-21T21:00:30.476Z,75.08
2019-01-21T21:02:59.922Z,75.16
2019-01-21T21:05:29.298Z,75.18
2019-01-21T21:07:58.560Z,75.94
2019-01-21T21:10:28.775Z,75.26
2019-01-21T21:13:04.892Z,75.05
2019-01-21T21:15:36.071Z,75.96
2019-01-21T21:18:05.399Z,75.33
2019-01-21T21:20:34.669Z,74.75
2019-01-21T21:23:03.923Z,75.54
2019-01-21T21:25:33.198Z,76.40
2019-01-21T21:28:02.489Z,76.48
2019-01-21T21:30:32.381Z,75.60
2019-01-21T21:33:01.651Z,75.24
2019-01-21T21:35:30.921Z,75.99
2019-01-21T21:38:00.184Z,74.93
2019-01-21T21:40:29.433Z,75.10
2019-01-21T21:42:58.709Z,75.86
2019-01-21T21:45:28.079Z,75.27
2019-01-21T21:48:01.107Z,76.08
2019-01-21T21:50:30.986Z,74.85
2019-01-21T21:53:00.263Z,74.73
2019-01-21T21:55:29.748Z,75.44
2019-01-21T21:57:59.058Z,75.15
2019-01-21T22:00:28.956Z,76.68
2019-01-21T22:02:58.232Z,76.06
2019-01-21T22:05:27.672Z,75.93
2019-01-21T22:07:56.983Z,76.15
2019-01-21T22:10:27.314Z,76.01
2019-01-21T22:12:56.650Z,76.62
2019-01-21T22:15:26.178Z,77.27
2019-01-21T22:17:55.455Z,77.67
2019-01-21T22:20:25.148Z,77.73
2019-01-21T22:22:54.407Z,78.24
2019-01-21T22:25:23.681Z,77.96
2019-01-21T22:27:52.941Z,76.84
2019-01-21T22:30:24.165Z,78.29
2019-01-21T22:32:53.425Z,77.89
2019-01-21T22:35:22.780Z,78.32
2019-01-21T22:37:52.110Z,79.78
2019-01-21T22:40:22.206Z,79.89
2019-01-21T22:42:51.473Z,80.03
2019-01-21T22:45:21.720Z,81.00
2019-01-21T22:47:50.988Z,80.31
2019-01-21T22:50:20.458Z,80.58
2019-01-21T22:52:49.724Z,80.21
2019-01-21T22:55:19.072Z,78.58
2019-01-21T22:57:48.589Z,79.06
2019-01-21T23:00:27.493Z,78.75
2019-01-21T23:02:56.832Z,80.37
2019-01-21T23:05:26.107Z,78.70
2019-01-21T23:07:55.360Z,78.97
2019-01-21T23:10:24.623Z,78.12
2019-01-21T23:12:54.042Z,78.84
2019-01-21T23:15:25.242Z,78.28
2019-01-21T23:17:54.487Z,77.50
2019-01-21T23:20:24.732Z,77.50
2019-01-21T23:22:54.878Z,77.57
2019-01-21T23:25:24.559Z,77.87
2019-01-21T23:27:53.817Z,78.29
2019-01-21T23:30:23.928Z,79.30
2019-01-21T23:32:53.179Z,79.64
2019-01-21T23:35:22.431Z,80.08
2019-01-21T23:37:51.969Z,81.23
2019-01-21T23:40:21.222Z,81.82
2019-01-21T23:42:50.473Z,81.10
2019-01-21T23:45:19.707Z,81.24
2019-01-21T23:47:49.052Z,80.95
2019-01-21T23:50:18.301Z,80.58
2019-01-21T23:52:47.574Z,80.33
2019-01-21T23:55:16.819Z,79.73
2019-01-21T23:57:46.082Z,79.06
